Bloomer, Wisconsin
Current Conditions -  °F | °C
As of 5:15 AM on Friday 28 Nov 2014 (Local Time) from KY23 Reporting Station
Light Snow Light Snow  
Wind Chill: -3°   Ceiling: 6000
Heat Index:   Visibility: 7mi
Dew Point:   Wind: 7mph
Humidity: 84%   Direction: 100°E
Pressure: 30.11"   Gusts: NA
Location:  45.1°N, 91.49°W
Report Text: KY23 281115Z AUTO 10006KT 7SM -SN OVC060 M13/M15 A3011 RMK AO2 T11301152
Loading
Personal Weather Stations






























Interactive Weather Map New forecast layout! Learn more

10-Day Weather Forecast

Advertisements
Track Severe Weather on mobile